Time;durP1;ratioP1;P1;durP2;ratioP2;P2;SDS_P1;SDS_P2;PMS_P1;PMS_P2;Temp;Humidity;BMP_temperature;BMP_pressure;BME280_temperature;BME280_humidity;BME280_pressure;Samples;Min_cycle;Max_cycle;Signal;HPM_P1;HPM_P2
2021/06/26 00:02:32;;;;;;;9.95;9.05;;;;;;;17.14;84.36;98845.69;263082;1088;24361;-79
2021/06/26 00:07:44;;;;;;;10.90;9.30;;;;;;;17.10;84.38;98842.05;263306;1088;22859;-80
2021/06/26 00:12:48;;;;;;;13.30;9.43;;;;;;;17.03;84.15;98841.79;264423;1088;25765;-80
2021/06/26 00:17:53;;;;;;;12.50;9.10;;;;;;;16.98;84.48;98839.27;263990;1089;25892;-80
2021/06/26 00:22:58;;;;;;;9.95;8.95;;;;;;;16.93;84.51;98829.45;263923;1090;22865;-79
2021/06/26 00:28:02;;;;;;;13.00;9.47;;;;;;;16.89;84.54;98825.81;263587;1090;22943;-79
2021/06/26 00:33:06;;;;;;;11.75;9.10;;;;;;;16.87;84.84;98830.71;263883;1089;23376;-79
2021/06/26 00:38:09;;;;;;;10.40;8.55;;;;;;;16.88;84.73;98821.48;263834;1090;23044;-79
2021/06/26 00:43:25;;;;;;;9.95;8.60;;;;;;;16.89;85.21;98832.00;263835;1089;22848;-79
2021/06/26 00:48:46;;;;;;;16.70;9.00;;;;;;;16.91;84.99;98846.02;263325;1089;22840;-79
2021/06/26 00:53:49;;;;;;;11.40;8.27;;;;;;;16.93;85.28;98842.97;262962;1089;24196;-79
2021/06/26 00:58:56;;;;;;;11.87;8.57;;;;;;;16.88;85.05;98854.76;263963;1089;25879;-80
2021/06/26 01:04:00;;;;;;;10.40;8.25;;;;;;;16.87;84.87;98855.06;263552;1089;25727;-79
2021/06/26 01:09:17;;;;;;;9.13;8.17;;;;;;;16.88;85.14;98846.64;263055;1089;25762;-79
2021/06/26 01:14:21;;;;;;;9.23;8.20;;;;;;;16.89;85.22;98848.23;263539;1089;22743;-79
2021/06/26 01:19:24;;;;;;;13.15;8.20;;;;;;;16.87;85.22;98847.75;263032;1090;24285;-79
2021/06/26 01:24:28;;;;;;;9.20;7.87;;;;;;;16.91;85.42;98847.91;263034;1089;26251;-79
2021/06/26 01:29:38;;;;;;;10.98;8.63;;;;;;;16.93;85.26;98838.34;263205;1088;25302;-79
2021/06/26 01:34:41;;;;;;;10.65;9.00;;;;;;;16.93;85.20;98830.23;263079;1089;25884;-79
2021/06/26 01:39:57;;;;;;;9.85;8.50;;;;;;;16.90;85.51;98822.77;263302;1089;22857;-79
2021/06/26 01:45:00;;;;;;;10.60;8.45;;;;;;;16.86;85.22;98821.81;263961;1089;22783;-80
2021/06/26 01:50:05;;;;;;;12.90;9.60;;;;;;;16.85;85.34;98832.97;263664;1089;25905;-80
2021/06/26 01:55:09;;;;;;;10.70;9.60;;;;;;;16.80;85.56;98831.23;263941;1089;22983;-79
2021/06/26 02:00:21;;;;;;;12.13;10.73;;;;;;;16.78;85.45;98851.63;264188;1090;22860;-79
2021/06/26 02:05:42;;;;;;;11.00;9.90;;;;;;;16.69;85.22;98854.37;263218;1089;24553;-79
2021/06/26 02:10:45;;;;;;;12.63;10.97;;;;;;;16.67;85.53;98851.21;262915;1089;24339;-80
2021/06/26 02:15:50;;;;;;;11.50;9.50;;;;;;;16.70;85.96;98862.16;263220;1090;22944;-78
2021/06/26 02:21:02;;;;;;;14.55;10.80;;;;;;;16.70;85.87;98864.08;262906;1089;25829;-79
2021/06/26 02:26:20;;;;;;;14.90;10.20;;;;;;;16.70;85.79;98864.08;263477;1090;22920;-79
2021/06/26 02:31:24;;;;;;;11.50;9.43;;;;;;;16.66;85.57;98865.84;262933;1089;27211;-79
2021/06/26 02:36:27;;;;;;;11.85;10.65;;;;;;;16.59;85.48;98874.46;262745;1088;23031;-79
2021/06/26 02:41:31;;;;;;;15.10;11.40;;;;;;;16.52;85.68;98869.59;263901;1089;22818;-79
2021/06/26 02:46:34;;;;;;;16.00;11.75;;;;;;;16.55;86.37;98868.13;263858;1090;24058;-79
2021/06/26 02:51:38;;;;;;;14.10;10.60;;;;;;;16.52;86.35;98871.48;263623;1088;22771;-78
2021/06/26 02:56:42;;;;;;;15.65;12.85;;;;;;;16.52;86.74;98877.70;262871;1089;22777;-79
2021/06/26 03:02:02;;;;;;;14.70;12.90;;;;;;;16.54;87.00;98880.86;262984;1089;23334;-78
2021/06/26 03:07:19;;;;;;;15.33;12.27;;;;;;;16.56;86.59;98883.23;262685;1089;22914;-79
2021/06/26 03:12:23;;;;;;;16.40;13.30;;;;;;;16.62;87.28;98881.14;263657;1090;24413;-79
2021/06/26 03:17:27;;;;;;;18.00;13.80;;;;;;;16.66;87.02;98888.30;263628;1088;22859;-79
2021/06/26 03:22:34;;;;;;;15.45;12.50;;;;;;;16.71;87.20;98898.13;262754;1090;24036;-80
2021/06/26 03:27:42;;;;;;;18.80;12.60;;;;;;;16.76;87.40;98896.03;262967;1090;25756;-79
2021/06/26 03:32:52;;;;;;;17.25;12.65;;;;;;;16.81;87.09;98886.92;263840;1090;22911;-79
2021/06/26 03:38:01;;;;;;;15.10;13.40;;;;;;;16.86;87.27;98900.27;263664;1089;22779;-79
2021/06/26 03:43:19;;;;;;;20.15;12.50;;;;;;;16.97;87.46;98910.73;263247;1088;22854;-79
2021/06/26 03:48:38;;;;;;;15.17;12.70;;;;;;;17.06;87.54;98906.08;263561;1088;22876;-79
2021/06/26 03:53:41;;;;;;;15.10;11.40;;;;;;;17.15;87.23;98906.02;263291;1089;22741;-78
2021/06/26 03:58:44;;;;;;;14.50;12.35;;;;;;;17.20;87.32;98909.31;262670;1089;25758;-78
2021/06/26 04:03:48;;;;;;;13.90;12.40;;;;;;;17.32;87.35;98908.61;262876;1090;24324;-79
2021/06/26 04:09:04;;;;;;;16.50;12.00;;;;;;;17.39;87.04;98913.48;262651;1090;23347;-79
2021/06/26 04:14:16;;;;;;;15.85;13.00;;;;;;;17.47;87.24;98903.72;263311;1089;26397;-78
2021/06/26 04:19:22;;;;;;;15.25;12.30;;;;;;;17.55;87.18;98900.14;262990;1090;23032;-79
2021/06/26 04:24:47;;;;;;;15.20;12.85;;;;;;;17.60;86.98;98906.16;262639;1090;22893;-79
2021/06/26 04:29:50;;;;;;;16.75;13.10;;;;;;;17.64;86.67;98897.36;262738;1088;24438;-79
2021/06/26 04:34:54;;;;;;;13.23;11.83;;;;;;;17.78;86.82;98903.27;263202;1088;27025;-79
2021/06/26 04:39:58;;;;;;;12.43;11.13;;;;;;;17.87;86.45;98900.50;262836;1090;23362;-78
2021/06/26 04:45:07;;;;;;;12.85;10.70;;;;;;;17.94;86.12;98898.84;263454;1089;24320;-78
2021/06/26 04:50:21;;;;;;;13.75;10.90;;;;;;;18.05;86.14;98895.73;263265;1088;22729;-80
2021/06/26 04:55:24;;;;;;;10.55;9.35;;;;;;;18.17;85.86;98893.03;262992;1090;23089;-79
2021/06/26 05:00:28;;;;;;;10.50;9.40;;;;;;;18.30;85.51;98883.02;263611;1089;22799;-79
2021/06/26 05:05:32;;;;;;;11.20;9.45;;;;;;;18.50;85.35;98872.41;263520;1089;22916;-79
2021/06/26 05:10:37;;;;;;;11.90;10.10;;;;;;;18.73;85.14;98873.55;263710;1089;24052;-78
2021/06/26 05:15:43;;;;;;;9.60;8.60;;;;;;;18.92;84.26;98870.25;263543;1088;22844;-79
2021/06/26 05:20:47;;;;;;;11.05;9.45;;;;;;;19.10;83.88;98872.72;263619;1090;25765;-79
2021/06/26 05:26:03;;;;;;;10.93;9.53;;;;;;;19.28;83.65;98863.16;263710;1089;25985;-79
2021/06/26 05:31:12;;;;;;;10.03;8.90;;;;;;;19.49;82.93;98870.34;263463;1089;24050;-79
2021/06/26 05:36:16;;;;;;;9.65;7.65;;;;;;;19.81;82.34;98881.31;262870;1089;22853;-79
2021/06/26 05:41:19;;;;;;;9.10;8.20;;;;;;;19.93;81.46;98891.34;263182;1090;22917;-79
2021/06/26 05:46:24;;;;;;;9.20;8.30;;;;;;;19.90;80.96;98897.48;263652;1089;25957;-79
2021/06/26 05:51:27;;;;;;;9.93;8.93;;;;;;;19.80;80.43;98898.78;262968;1088;24403;-79
2021/06/26 05:56:30;;;;;;;10.35;8.03;;;;;;;19.79;80.33;98900.69;263826;1089;24448;-78
2021/06/26 06:01:34;;;;;;;8.17;7.20;;;;;;;19.88;79.58;98911.43;263315;1088;22840;-79
2021/06/26 06:06:37;;;;;;;9.77;8.00;;;;;;;19.89;79.14;98904.83;262987;1089;25896;-80
2021/06/26 06:11:41;;;;;;;8.40;7.47;;;;;;;19.91;79.09;98916.16;263397;1089;25842;-79
2021/06/26 06:16:45;;;;;;;9.55;6.73;;;;;;;20.03;78.43;98911.80;263051;1090;22768;-79
2021/06/26 06:21:48;;;;;;;8.20;7.40;;;;;;;20.20;78.63;98919.62;263119;1089;22782;-79
2021/06/26 06:27:00;;;;;;;8.63;7.73;;;;;;;20.28;77.33;98921.39;263487;1089;22770;-79
2021/06/26 06:32:04;;;;;;;8.13;7.33;;;;;;;20.35;77.29;98918.84;263633;1089;22900;-77
2021/06/26 06:37:07;;;;;;;9.13;8.03;;;;;;;20.44;77.09;98929.58;263471;1090;23383;-78
2021/06/26 06:42:11;;;;;;;8.03;7.20;;;;;;;20.52;76.60;98927.81;263406;1089;25759;-79
2021/06/26 06:47:29;;;;;;;7.53;6.77;;;;;;;20.65;76.46;98936.67;263312;1089;23356;-79
2021/06/26 06:52:39;;;;;;;9.03;8.20;;;;;;;20.75;77.06;98932.66;263093;1089;23299;-78
2021/06/26 06:57:54;;;;;;;8.87;7.97;;;;;;;20.81;75.89;98929.31;262797;1090;22881;-76
2021/06/26 07:02:57;;;;;;;9.38;7.95;;;;;;;20.89;76.02;98927.56;262897;1089;23878;-78
2021/06/26 07:08:09;;;;;;;9.20;8.30;;;;;;;21.01;75.51;98930.19;263127;1090;22784;-78
2021/06/26 07:13:15;;;;;;;11.08;8.60;;;;;;;21.09;75.45;98925.67;262931;1089;27092;-78
2021/06/26 07:18:19;;;;;;;9.28;8.25;;;;;;;21.11;75.31;98934.30;263019;1090;23321;-77
2021/06/26 07:23:22;;;;;;;9.15;8.23;;;;;;;21.05;74.75;98937.64;262939;1088;25852;-79
2021/06/26 07:28:32;;;;;;;8.83;7.93;;;;;;;21.13;74.33;98936.66;263744;1089;22763;-77
2021/06/26 07:33:35;;;;;;;10.20;7.98;;;;;;;21.24;74.61;98936.88;262642;1088;26271;-77
2021/06/26 07:38:38;;;;;;;9.43;8.53;;;;;;;21.39;74.20;98924.36;262782;1090;22847;-77
2021/06/26 07:43:42;;;;;;;8.85;7.33;;;;;;;21.58;74.07;98934.52;262922;1090;27098;-78
2021/06/26 07:48:46;;;;;;;10.05;7.68;;;;;;;21.66;73.30;98928.85;262597;1090;22770;-77
2021/06/26 07:53:51;;;;;;;8.58;7.75;;;;;;;21.88;73.14;98930.06;262877;1090;25992;-77
2021/06/26 07:58:54;;;;;;;7.27;6.57;;;;;;;22.02;71.85;98920.56;262766;1089;23479;-77
2021/06/26 08:03:59;;;;;;;8.05;7.25;;;;;;;22.21;72.45;98915.06;262972;1088;25993;-77
2021/06/26 08:09:04;;;;;;;8.03;6.15;;;;;;;22.47;71.92;98919.05;262363;1090;22829;-77
2021/06/26 08:14:08;;;;;;;5.95;5.35;;;;;;;22.86;71.28;98926.27;262824;1088;25018;-78
2021/06/26 08:19:14;;;;;;;6.48;5.88;;;;;;;23.19;69.97;98916.64;262648;1089;22782;-78
2021/06/26 08:24:19;;;;;;;6.38;5.78;;;;;;;23.41;68.50;98918.48;263759;1089;26286;-76
2021/06/26 08:29:33;;;;;;;6.20;5.60;;;;;;;23.48;67.26;98919.76;262972;1089;26104;-76
2021/06/26 08:34:36;;;;;;;6.45;5.95;;;;;;;23.55;67.05;98912.41;262587;1090;22848;-77
2021/06/26 08:39:40;;;;;;;5.27;4.83;;;;;;;23.68;66.22;98912.95;263152;1089;23407;-76
2021/06/26 08:44:48;;;;;;;5.83;5.33;;;;;;;23.66;64.79;98914.48;262949;1089;22784;-78
2021/06/26 08:49:52;;;;;;;5.77;5.27;;;;;;;23.61;64.37;98906.63;263919;1090;22762;-78
2021/06/26 08:54:55;;;;;;;5.05;4.65;;;;;;;23.61;64.04;98906.63;264462;1090;22758;-78
2021/06/26 09:00:00;;;;;;;5.38;4.98;;;;;;;23.81;64.51;98913.51;262911;1089;25784;-78
2021/06/26 09:05:04;;;;;;;5.20;4.80;;;;;;;23.89;63.69;98904.22;263282;1088;22793;-78
2021/06/26 09:10:15;;;;;;;4.90;4.50;;;;;;;23.98;63.40;98909.41;262690;1088;22754;-78
2021/06/26 09:15:26;;;;;;;5.25;4.85;;;;;;;23.98;63.02;98912.15;262714;1088;26040;-78
2021/06/26 09:20:35;;;;;;;4.75;4.35;;;;;;;24.06;62.41;98908.33;263104;1089;26283;-77
2021/06/26 09:25:39;;;;;;;4.90;4.43;;;;;;;24.05;61.78;98909.48;263189;1089;22768;-76
2021/06/26 09:30:45;;;;;;;4.93;4.53;;;;;;;24.18;62.19;98901.00;263374;1089;22858;-77
2021/06/26 09:36:23;;;;;;;4.95;4.55;;;;;;;24.16;60.63;98909.59;263522;1089;22776;-78
2021/06/26 09:41:39;;;;;;;4.55;4.15;;;;;;;24.15;60.66;98899.00;263078;1090;23311;-78
2021/06/26 09:47:02;;;;;;;4.40;4.00;;;;;;;24.05;60.02;98906.74;263246;1088;24157;-78
2021/06/26 09:52:05;;;;;;;3.90;3.60;;;;;;;23.93;60.49;98900.76;263494;1089;23424;-79
2021/06/26 09:57:10;;;;;;;5.25;4.85;;;;;;;23.91;60.31;98899.17;263011;1090;26358;-78
2021/06/26 10:02:29;;;;;;;4.85;4.38;;;;;;;23.87;60.35;98889.34;263155;1088;26014;-79
2021/06/26 10:08:01;;;;;;;4.65;4.25;;;;;;;23.84;60.24;98892.80;263321;1088;22917;-79
2021/06/26 10:13:04;;;;;;;4.38;4.08;;;;;;;23.80;60.32;98898.25;263941;1090;22776;-79
2021/06/26 10:18:12;;;;;;;3.93;3.63;;;;;;;23.81;59.87;98891.63;263766;1089;25963;-78
2021/06/26 10:23:15;;;;;;;3.27;3.00;;;;;;;23.77;59.14;98889.99;263136;1088;27303;-78
2021/06/26 10:28:19;;;;;;;3.80;3.50;;;;;;;24.03;59.39;98880.91;262718;1090;22841;-78
2021/06/26 10:33:30;;;;;;;3.50;3.17;;;;;;;24.56;58.46;98879.80;262783;1088;25870;-78
2021/06/26 10:38:44;;;;;;;4.13;3.83;;;;;;;25.13;58.18;98890.38;262904;1090;22844;-77
2021/06/26 10:43:56;;;;;;;5.43;4.25;;;;;;;25.31;56.86;98876.75;263467;1090;22889;-77
2021/06/26 10:49:02;;;;;;;4.50;4.10;;;;;;;25.44;57.28;98880.73;263285;1089;22786;-77
2021/06/26 10:54:17;;;;;;;3.58;2.83;;;;;;;25.69;55.35;98887.50;263165;1088;22757;-77
2021/06/26 10:59:21;;;;;;;3.53;3.20;;;;;;;25.60;54.18;98885.09;263223;1090;22777;-76
2021/06/26 11:04:25;;;;;;;3.28;3.05;;;;;;;25.65;54.47;98881.98;264054;1090;25858;-76
2021/06/26 11:09:35;;;;;;;5.20;3.60;;;;;;;25.76;54.49;98882.80;263068;1090;22825;-76
2021/06/26 11:15:04;;;;;;;5.28;4.88;;;;;;;25.75;54.75;98883.19;262948;1090;23421;-76
2021/06/26 11:20:27;;;;;;;5.53;5.13;;;;;;;25.60;54.40;98885.91;262807;1090;23913;-76
2021/06/26 11:25:32;;;;;;;5.18;4.78;;;;;;;25.43;54.46;98881.90;262428;1089;22783;-76
2021/06/26 11:30:37;;;;;;;5.23;4.80;;;;;;;25.39;54.46;98886.61;262372;1090;24368;-76
2021/06/26 11:35:43;;;;;;;5.93;5.40;;;;;;;25.33;55.03;98876.39;262965;1089;22760;-76
2021/06/26 11:40:46;;;;;;;6.13;5.68;;;;;;;25.10;54.22;98880.19;262842;1090;24363;-75
2021/06/26 11:45:50;;;;;;;5.43;4.93;;;;;;;25.17;54.88;98877.47;262465;1090;23347;-75
2021/06/26 11:50:56;;;;;;;6.05;5.55;;;;;;;25.45;54.83;98876.83;262658;1090;23664;-76
2021/06/26 11:56:03;;;;;;;6.40;5.90;;;;;;;25.74;54.13;98862.41;263160;1089;23500;-76
2021/06/26 12:01:12;;;;;;;;;;;;;;;26.02;54.25;98858.17;262579;1088;24465;-77
2021/06/26 12:06:16;;;;;;;5.97;5.47;;;;;;;26.07;53.74;98864.06;263026;1090;24598;-77
2021/06/26 12:11:26;;;;;;;5.98;5.10;;;;;;;26.01;53.00;98867.55;262856;1089;24318;-77
2021/06/26 12:16:36;;;;;;;5.55;5.05;;;;;;;26.04;53.14;98870.34;262375;1090;25491;-77
2021/06/26 12:21:47;;;;;;;5.50;5.10;;;;;;;26.04;52.91;98864.08;262781;1090;22808;-77
2021/06/26 12:27:20;;;;;;;6.10;5.60;;;;;;;25.98;52.15;98860.91;263073;1089;24139;-76
2021/06/26 12:32:31;;;;;;;6.03;5.53;;;;;;;25.96;52.51;98852.27;263363;1090;22888;-76
2021/06/26 12:37:54;;;;;;;6.35;5.80;;;;;;;25.82;52.36;98847.53;262934;1090;27638;-77
2021/06/26 12:43:02;;;;;;;6.03;5.48;;;;;;;25.75;52.44;98839.30;263122;1089;23372;-76
2021/06/26 12:48:10;;;;;;;5.73;5.23;;;;;;;25.74;52.55;98827.55;263285;1090;25897;-75
2021/06/26 12:53:14;;;;;;;6.90;6.37;;;;;;;25.78;53.39;98822.86;263090;1090;25976;-76
2021/06/26 12:58:31;;;;;;;6.93;6.33;;;;;;;25.82;53.29;98816.58;262827;1089;22790;-76
2021/06/26 13:03:34;;;;;;;5.20;4.80;;;;;;;25.87;52.66;98816.17;263100;1090;26392;-75
2021/06/26 13:08:55;;;;;;;5.45;4.95;;;;;;;25.98;52.38;98811.51;263147;1090;22744;-75
2021/06/26 13:14:22;;;;;;;5.23;4.83;;;;;;;26.17;50.69;98810.34;262868;1088;26985;-76
2021/06/26 13:19:26;;;;;;;;;;;;;;;26.23;50.65;98805.24;263139;1090;24291;-75
2021/06/26 13:24:34;;;;;;;5.60;5.10;;;;;;;26.57;50.68;98802.05;263249;1090;24327;-75
2021/06/26 13:29:51;;;;;;;5.40;4.95;;;;;;;26.71;50.10;98807.56;263102;1089;25951;-76
2021/06/26 13:34:55;;;;;;;4.77;4.47;;;;;;;26.79;49.96;98802.81;263150;1090;26066;-76
2021/06/26 13:39:58;;;;;;;5.23;4.83;;;;;;;27.09;49.85;98793.30;263174;1090;23967;-75
2021/06/26 13:45:15;;;;;;;5.33;4.83;;;;;;;27.14;49.86;98792.86;263535;1089;22799;-76
2021/06/26 13:50:19;;;;;;;5.97;4.73;;;;;;;27.18;49.63;98796.38;263112;1089;25970;-75
2021/06/26 13:55:23;;;;;;;3.70;3.43;;;;;;;27.21;48.87;98789.30;263176;1090;25856;-76
2021/06/26 14:00:28;;;;;;;3.30;3.10;;;;;;;27.14;47.40;98790.91;263321;1088;25762;-76
2021/06/26 14:05:31;;;;;;;4.53;4.18;;;;;;;27.22;47.96;98785.38;263212;1089;22956;-75
2021/06/26 14:10:42;;;;;;;4.65;4.25;;;;;;;27.44;47.52;98784.10;262882;1089;26245;-75
2021/06/26 14:15:47;;;;;;;5.03;4.28;;;;;;;27.35;47.41;98777.45;263204;1088;22768;-76
2021/06/26 14:20:50;;;;;;;4.13;3.83;;;;;;;27.13;47.02;98772.08;262874;1090;22844;-75
2021/06/26 14:25:53;;;;;;;4.00;3.70;;;;;;;26.98;47.30;98766.63;263203;1090;23683;-75
2021/06/26 14:30:56;;;;;;;4.03;3.73;;;;;;;27.00;46.99;98762.70;262941;1090;25950;-75
2021/06/26 14:36:00;;;;;;;4.27;3.90;;;;;;;26.92;47.17;98765.48;263157;1089;24477;-75
2021/06/26 14:41:05;;;;;;;4.18;3.83;;;;;;;26.90;46.84;98758.81;263115;1089;26245;-75
2021/06/26 14:46:08;;;;;;;4.08;3.78;;;;;;;26.77;46.70;98751.00;262987;1090;25905;-75
2021/06/26 14:51:13;;;;;;;3.90;3.60;;;;;;;26.56;46.11;98754.58;263256;1089;25861;-74
2021/06/26 14:56:17;;;;;;;4.13;3.83;;;;;;;26.40;46.54;98765.20;262710;1090;23514;-75
2021/06/26 15:01:21;;;;;;;5.47;4.20;;;;;;;26.30;46.97;98758.55;262921;1090;26242;-75
2021/06/26 15:06:25;;;;;;;4.20;3.90;;;;;;;26.19;46.70;98772.31;262624;1089;23341;-75
2021/06/26 15:11:27;;;;;;;4.10;3.80;;;;;;;26.16;47.69;98764.07;262914;1090;25829;-75
2021/06/26 15:16:52;;;;;;;4.50;4.10;;;;;;;26.25;47.66;98769.95;262447;1088;27013;-75
2021/06/26 15:21:55;;;;;;;3.85;3.60;;;;;;;26.36;47.88;98762.48;262695;1089;25979;-75
2021/06/26 15:26:58;;;;;;;5.20;4.80;;;;;;;26.25;47.45;98767.21;262841;1090;24025;-76
2021/06/26 15:32:02;;;;;;;4.23;3.93;;;;;;;26.22;47.55;98762.48;262808;1090;25868;-76
2021/06/26 15:37:15;;;;;;;4.60;4.20;;;;;;;26.29;47.70;98752.30;262876;1090;24285;-75
2021/06/26 15:42:19;;;;;;;3.88;3.58;;;;;;;26.48;47.50;98755.77;262528;1090;25771;-75
2021/06/26 15:47:22;;;;;;;4.40;4.10;;;;;;;26.37;47.10;98749.53;262523;1090;28260;-75
2021/06/26 15:52:39;;;;;;;4.40;4.10;;;;;;;26.24;47.18;98747.19;262695;1088;25777;-75
2021/06/26 15:57:56;;;;;;;4.50;4.10;;;;;;;26.12;47.65;98753.09;262356;1090;24288;-75
2021/06/26 16:02:59;;;;;;;4.27;3.97;;;;;;;25.70;47.31;98751.89;262769;1089;27102;-75
2021/06/26 16:08:02;;;;;;;4.65;4.25;;;;;;;25.45;48.45;98747.95;262781;1090;23038;-75
2021/06/26 16:13:06;;;;;;;5.18;4.78;;;;;;;25.17;48.32;98748.66;262949;1089;24292;-75
2021/06/26 16:18:09;;;;;;;5.33;4.83;;;;;;;24.87;49.22;98746.19;262853;1089;25829;-75
2021/06/26 16:23:12;;;;;;;7.05;4.83;;;;;;;24.63;49.93;98745.69;262566;1089;24192;-75
2021/06/26 16:28:16;;;;;;;5.83;5.25;;;;;;;24.54;51.07;98747.95;262967;1089;26193;-75
2021/06/26 16:33:19;;;;;;;5.43;5.03;;;;;;;24.59;51.58;98742.13;262944;1090;22758;-74
2021/06/26 16:38:28;;;;;;;5.30;4.83;;;;;;;24.71;50.92;98755.52;262843;1089;24301;-75
2021/06/26 16:43:33;;;;;;;5.97;5.40;;;;;;;24.73;50.79;98768.83;262661;1089;26014;-75
2021/06/26 16:48:37;;;;;;;5.63;5.23;;;;;;;24.86;51.32;98770.07;262693;1088;26360;-75
2021/06/26 16:53:40;;;;;;;6.23;5.63;;;;;;;24.60;51.20;98776.56;262801;1089;22758;-75
2021/06/26 16:58:43;;;;;;;6.58;6.08;;;;;;;23.94;51.39;98793.69;262758;1089;22838;-75
2021/06/26 17:03:46;;;;;;;6.73;6.13;;;;;;;23.30;52.83;98791.86;262751;1089;23265;-73
2021/06/26 17:08:52;;;;;;;6.33;5.83;;;;;;;23.03;53.82;98802.06;262972;1086;25883;-76
2021/06/26 17:13:55;;;;;;;5.20;4.78;;;;;;;22.80;55.06;98807.60;262829;1087;24191;-75
2021/06/26 17:18:59;;;;;;;7.00;6.40;;;;;;;22.61;55.91;98814.77;262952;1085;26632;-75
2021/06/26 17:24:12;;;;;;;5.35;4.85;;;;;;;22.45;56.66;98814.13;262826;1086;24423;-74
2021/06/26 17:29:29;;;;;;;5.83;5.23;;;;;;;22.26;56.97;98806.78;262818;1087;25574;-76
2021/06/26 17:34:45;;;;;;;5.50;4.90;;;;;;;22.10;56.70;98798.74;262839;1086;22759;-75
2021/06/26 17:39:48;;;;;;;9.95;5.80;;;;;;;22.01;57.19;98807.18;262795;1085;24362;-75
2021/06/26 17:44:51;;;;;;;4.93;4.43;;;;;;;21.93;57.52;98811.71;262781;1087;22937;-75
2021/06/26 17:49:54;;;;;;;4.00;3.60;;;;;;;21.70;58.02;98808.98;263073;1085;26376;-75
2021/06/26 17:54:58;;;;;;;6.13;4.65;;;;;;;21.41;58.82;98807.64;262827;1086;25435;-76
2021/06/26 18:00:01;;;;;;;5.78;4.45;;;;;;;21.09;59.34;98810.51;262846;1087;22881;-74
2021/06/26 18:05:07;;;;;;;7.43;4.83;;;;;;;20.83;60.51;98801.01;262899;1087;22960;-75
2021/06/26 18:10:12;;;;;;;5.83;4.33;;;;;;;20.59;61.26;98802.02;262840;1087;22781;-75
2021/06/26 18:15:17;;;;;;;5.88;4.68;;;;;;;20.40;61.21;98805.47;263056;1087;26107;-74
2021/06/26 18:20:21;;;;;;;5.40;4.85;;;;;;;20.29;62.34;98808.73;263238;1085;25899;-75
2021/06/26 18:25:24;;;;;;;6.00;5.40;;;;;;;20.18;62.30;98815.85;263182;1086;23462;-74
2021/06/26 18:30:27;;;;;;;6.30;5.70;;;;;;;20.03;62.88;98816.64;263499;1087;22665;-75
2021/06/26 18:35:45;;;;;;;6.30;5.70;;;;;;;19.91;63.49;98823.73;263186;1086;22741;-75
2021/06/26 18:40:54;;;;;;;7.63;5.83;;;;;;;19.77;64.04;98834.22;263135;1086;22777;-75
2021/06/26 18:45:59;;;;;;;5.97;5.37;;;;;;;19.68;64.73;98828.14;263082;1087;22760;-74
2021/06/26 18:51:03;;;;;;;7.10;6.40;;;;;;;19.58;65.32;98835.65;263124;1085;22833;-74
2021/06/26 18:56:07;;;;;;;7.07;6.33;;;;;;;19.49;65.52;98843.96;263135;1087;25777;-74
2021/06/26 19:01:24;;;;;;;7.83;6.83;;;;;;;19.37;65.91;98843.22;263070;1086;22732;-74
2021/06/26 19:06:27;;;;;;;8.05;6.45;;;;;;;19.27;66.36;98844.50;263150;1087;22857;-75
2021/06/26 19:11:31;;;;;;;7.80;5.80;;;;;;;19.22;66.86;98861.81;263118;1087;25777;-74
2021/06/26 19:16:35;;;;;;;7.57;6.87;;;;;;;19.19;67.47;98859.78;263207;1085;25416;-74
2021/06/26 19:21:39;;;;;;;8.05;7.15;;;;;;;19.19;67.91;98859.78;263236;1086;22995;-74
2021/06/26 19:26:42;;;;;;;10.60;7.05;;;;;;;19.17;68.32;98867.50;263487;1087;22821;-75
2021/06/26 19:31:45;;;;;;;7.40;6.25;;;;;;;19.14;68.06;98868.19;263277;1087;22760;-74
2021/06/26 19:36:48;;;;;;;7.40;6.50;;;;;;;19.14;68.92;98884.48;263191;1085;22780;-75
2021/06/26 19:41:51;;;;;;;6.95;6.25;;;;;;;19.14;69.08;98887.98;263253;1087;27121;-74
2021/06/26 19:46:54;;;;;;;8.10;7.30;;;;;;;19.14;69.25;98889.91;263127;1087;24445;-75
2021/06/26 19:51:58;;;;;;;8.95;7.95;;;;;;;19.06;69.04;98888.12;263064;1087;22760;-75
2021/06/26 19:57:03;;;;;;;9.40;7.70;;;;;;;18.95;69.60;98885.85;263240;1086;22747;-74
2021/06/26 20:02:07;;;;;;;10.70;9.60;;;;;;;18.88;70.13;98887.57;263253;1087;25967;-75
2021/06/26 20:07:12;;;;;;;10.85;9.10;;;;;;;18.75;70.30;98884.05;263044;1087;22961;-75
2021/06/26 20:12:18;;;;;;;12.50;9.90;;;;;;;18.67;70.90;98893.09;263120;1085;24476;-75
2021/06/26 20:17:23;;;;;;;11.10;9.95;;;;;;;18.61;71.35;98909.59;263174;1086;22866;-75
2021/06/26 20:22:26;;;;;;;10.20;8.80;;;;;;;18.49;71.73;98909.58;263116;1086;22755;-74
2021/06/26 20:27:29;;;;;;;10.65;9.55;;;;;;;18.35;72.15;98912.61;263180;1087;25784;-75
2021/06/26 20:32:34;;;;;;;11.40;9.95;;;;;;;18.23;72.28;98913.39;263239;1087;26069;-74
2021/06/26 20:37:39;;;;;;;11.57;9.93;;;;;;;18.13;72.66;98919.22;263179;1085;25841;-75
2021/06/26 20:42:55;;;;;;;14.25;12.75;;;;;;;18.01;73.08;98922.70;263186;1085;22779;-75
2021/06/26 20:48:12;;;;;;;16.40;13.60;;;;;;;17.92;73.32;98922.80;263180;1086;25947;-75
2021/06/26 20:53:30;;;;;;;15.25;12.40;;;;;;;17.88;73.86;98916.42;263128;1087;22781;-74
2021/06/26 20:58:40;;;;;;;12.23;10.93;;;;;;;17.87;74.29;98917.55;263217;1087;23073;-74
2021/06/26 21:03:52;;;;;;;13.85;11.45;;;;;;;17.84;74.31;98911.98;262829;1086;25755;-74
2021/06/26 21:08:55;;;;;;;15.77;12.00;;;;;;;17.80;74.44;98911.88;262806;1087;25871;-75
2021/06/26 21:13:58;;;;;;;12.10;10.65;;;;;;;17.80;75.22;98909.17;262895;1087;22776;-75
2021/06/26 21:19:01;;;;;;;13.10;11.20;;;;;;;17.81;74.97;98904.53;262931;1087;25868;-74
2021/06/26 21:24:05;;;;;;;12.95;10.50;;;;;;;17.78;74.96;98908.69;262905;1085;22849;-75
2021/06/26 21:29:09;;;;;;;12.70;11.40;;;;;;;17.72;75.17;98893.78;262739;1086;22760;-74
2021/06/26 21:34:13;;;;;;;15.93;12.33;;;;;;;17.64;75.29;98902.77;262862;1087;22773;-75
2021/06/26 21:39:15;;;;;;;13.85;11.85;;;;;;;17.65;75.86;98890.82;263093;1087;22828;-75
2021/06/26 21:44:19;;;;;;;12.65;11.25;;;;;;;17.57;75.54;98893.28;263197;1085;22814;-75
2021/06/26 21:49:22;;;;;;;14.93;13.00;;;;;;;17.44;75.61;98894.33;263182;1086;25996;-75
2021/06/26 21:54:25;;;;;;;16.83;13.67;;;;;;;17.30;76.09;98888.41;263265;1087;24602;-75
2021/06/26 21:59:30;;;;;;;14.20;11.55;;;;;;;17.22;76.46;98880.02;263361;1087;25979;-73
2021/06/26 22:04:33;;;;;;;14.95;12.25;;;;;;;17.17;76.66;98880.20;263118;1087;22757;-75
2021/06/26 22:09:38;;;;;;;13.60;12.00;;;;;;;17.12;76.75;98882.31;263136;1087;23610;-74
2021/06/26 22:14:41;;;;;;;18.60;13.70;;;;;;;17.06;76.97;98882.50;263188;1087;27041;-74
2021/06/26 22:19:45;;;;;;;16.25;13.20;;;;;;;17.00;77.44;98875.70;263327;1085;22831;-75
2021/06/26 22:24:48;;;;;;;17.67;12.63;;;;;;;16.95;77.15;98883.23;263185;1087;22857;-74
2021/06/26 22:30:03;;;;;;;15.10;12.80;;;;;;;16.90;77.77;98876.88;263165;1087;23331;-74
2021/06/26 22:35:08;;;;;;;13.70;12.00;;;;;;;16.89;77.74;98886.11;262893;1086;22783;-74
2021/06/26 22:40:17;;;;;;;15.65;12.00;;;;;;;16.91;77.96;98883.08;263097;1087;22780;-74
2021/06/26 22:45:22;;;;;;;16.10;12.13;;;;;;;16.95;78.24;98883.23;263078;1087;26300;-75
2021/06/26 22:50:26;;;;;;;15.00;11.30;;;;;;;16.87;77.99;98879.41;263015;1087;22922;-74
2021/06/26 22:55:31;;;;;;;15.20;13.03;;;;;;;16.85;78.48;98878.95;262979;1087;24447;-75
2021/06/26 23:00:39;;;;;;;16.27;14.00;;;;;;;16.85;78.61;98874.33;262854;1087;22816;-75
2021/06/26 23:05:43;;;;;;;18.00;13.65;;;;;;;16.84;78.54;98872.73;263012;1085;25899;-74
2021/06/26 23:10:53;;;;;;;17.10;13.15;;;;;;;16.84;78.63;98878.14;263077;1087;22808;-74
2021/06/26 23:15:57;;;;;;;16.60;13.35;;;;;;;16.80;78.75;98862.91;262932;1087;22753;-75
2021/06/26 23:21:00;;;;;;;13.40;12.10;;;;;;;16.70;78.57;98866.78;262870;1087;22767;-75
2021/06/26 23:26:03;;;;;;;14.25;12.75;;;;;;;16.60;78.26;98866.02;262941;1086;22778;-75
2021/06/26 23:31:07;;;;;;;14.60;12.70;;;;;;;16.56;78.85;98867.01;262816;1087;24281;-74
2021/06/26 23:36:10;;;;;;;14.67;12.20;;;;;;;16.57;79.44;98869.38;262912;1087;26060;-75
2021/06/26 23:41:26;;;;;;;17.95;13.00;;;;;;;16.52;79.19;98857.96;262777;1085;22816;-74